createdAt,value
2018-06-16T00:00:38.794Z,17.00
2018-06-16T00:01:38.815Z,16.99
2018-06-16T00:02:38.843Z,16.95
2018-06-16T00:03:38.858Z,16.85
2018-06-16T00:04:38.876Z,16.77
2018-06-16T00:05:38.897Z,16.70
2018-06-16T00:06:38.918Z,16.67
2018-06-16T00:07:38.939Z,16.63
2018-06-16T00:08:38.957Z,16.60
2018-06-16T00:09:38.979Z,16.60
2018-06-16T00:10:38.997Z,16.60
2018-06-16T00:11:39.025Z,16.68
2018-06-16T00:12:39.040Z,16.75
2018-06-16T00:13:39.067Z,16.78
2018-06-16T00:14:39.080Z,16.81
2018-06-16T00:15:39.103Z,16.89
2018-06-16T00:16:39.124Z,16.90
2018-06-16T00:17:39.144Z,16.93
2018-06-16T00:18:39.165Z,16.92
2018-06-16T00:19:39.191Z,16.86
2018-06-16T00:20:39.207Z,17.04
2018-06-16T00:21:39.229Z,17.00
2018-06-16T00:22:39.245Z,17.06
2018-06-16T00:23:39.268Z,17.04
2018-06-16T00:24:39.288Z,16.96
2018-06-16T00:25:39.308Z,17.04
2018-06-16T00:26:39.328Z,17.08
2018-06-16T00:27:39.356Z,17.07
2018-06-16T00:28:39.369Z,17.08
2018-06-16T00:29:39.389Z,17.03
2018-06-16T00:30:39.412Z,16.99
2018-06-16T00:31:39.432Z,17.08
2018-06-16T00:32:39.451Z,17.06
2018-06-16T00:33:39.469Z,17.17
2018-06-16T00:34:39.493Z,17.13
2018-06-16T00:35:39.511Z,17.17
2018-06-16T00:36:39.535Z,17.22
2018-06-16T00:37:39.553Z,17.18
2018-06-16T00:38:39.585Z,17.11
2018-06-16T00:39:39.596Z,17.18
2018-06-16T00:40:39.615Z,17.26
2018-06-16T00:41:39.636Z,17.17
2018-06-16T00:42:39.657Z,17.22
2018-06-16T00:43:39.675Z,17.26
2018-06-16T00:44:39.697Z,17.22
2018-06-16T00:45:39.716Z,17.22
2018-06-16T00:46:39.740Z,17.26
2018-06-16T00:47:39.764Z,17.28
2018-06-16T00:48:39.784Z,17.33
2018-06-16T00:49:39.800Z,17.26
2018-06-16T00:50:39.822Z,17.20
2018-06-16T00:51:39.846Z,17.14
2018-06-16T00:52:39.862Z,17.13
2018-06-16T00:53:39.890Z,17.07
2018-06-16T00:54:39.905Z,17.04
2018-06-16T00:55:39.923Z,17.03
2018-06-16T00:56:39.945Z,16.99
2018-06-16T00:57:39.966Z,16.93
2018-06-16T00:58:39.987Z,16.92
2018-06-16T00:59:40.013Z,16.92
2018-06-16T01:00:40.031Z,16.90
2018-06-16T01:01:40.050Z,16.75
2018-06-16T01:02:40.070Z,16.73
2018-06-16T01:03:40.092Z,16.75
2018-06-16T01:04:40.110Z,16.74
2018-06-16T01:05:40.133Z,16.71
2018-06-16T01:06:40.153Z,16.68
2018-06-16T01:07:40.171Z,16.70
2018-06-16T01:08:40.195Z,16.68
2018-06-16T01:09:40.213Z,16.60
2018-06-16T01:10:40.239Z,16.60
2018-06-16T01:11:40.256Z,16.65
2018-06-16T01:12:40.307Z,16.60
2018-06-16T01:13:40.297Z,16.67
2018-06-16T01:14:40.318Z,16.68
2018-06-16T01:15:40.338Z,16.74
2018-06-16T01:16:40.357Z,16.70
2018-06-16T01:17:40.381Z,16.73
2018-06-16T01:18:40.398Z,16.74
2018-06-16T01:19:40.419Z,16.86
2018-06-16T01:20:40.442Z,16.89
2018-06-16T01:21:40.460Z,16.89
2018-06-16T01:22:40.487Z,16.90
2018-06-16T01:23:40.503Z,16.95
2018-06-16T01:24:40.527Z,16.92
2018-06-16T01:25:40.543Z,16.93
2018-06-16T01:26:40.563Z,17.06
2018-06-16T01:27:40.586Z,16.96
2018-06-16T01:28:40.604Z,16.99
2018-06-16T01:29:40.623Z,16.96
2018-06-16T01:30:40.648Z,16.96
2018-06-16T01:31:40.665Z,17.00
2018-06-16T01:32:40.687Z,17.13
2018-06-16T01:33:40.712Z,17.08
2018-06-16T01:34:40.726Z,17.15
2018-06-16T01:35:40.749Z,17.06
2018-06-16T01:36:40.765Z,16.99
2018-06-16T01:37:40.791Z,17.00
2018-06-16T01:38:40.808Z,17.06
2018-06-16T01:39:40.833Z,17.03
2018-06-16T01:40:40.852Z,17.08
2018-06-16T01:41:40.874Z,17.07
2018-06-16T01:42:40.893Z,16.99
2018-06-16T01:43:40.921Z,17.13
2018-06-16T01:44:40.931Z,17.14
2018-06-16T01:45:40.959Z,17.22
2018-06-16T01:46:40.971Z,17.15
2018-06-16T01:47:40.995Z,17.17
2018-06-16T01:48:41.014Z,17.23
2018-06-16T01:49:41.040Z,17.18
2018-06-16T01:50:41.061Z,17.22
2018-06-16T01:51:41.078Z,17.20
2018-06-16T01:52:41.098Z,17.28
2018-06-16T01:53:41.117Z,17.29
2018-06-16T01:54:41.137Z,17.28
2018-06-16T02:23:48.022Z,17.11
2018-06-16T02:24:48.012Z,17.17
2018-06-16T02:26:40.930Z,17.14
2018-06-16T02:27:40.937Z,17.22
2018-06-16T02:29:33.876Z,17.13
2018-06-16T02:30:33.869Z,17.14
2018-06-16T02:32:26.788Z,17.11
2018-06-16T02:33:26.803Z,16.99
2018-06-16T02:35:19.745Z,17.07
2018-06-16T02:36:19.737Z,17.04
2018-06-16T02:38:12.660Z,17.03
2018-06-16T02:39:12.677Z,17.06
2018-06-16T02:41:05.622Z,17.08
2018-06-16T02:42:05.613Z,17.03
2018-06-16T02:43:58.559Z,16.90
2018-06-16T02:44:58.557Z,16.99
2018-06-16T02:46:51.509Z,16.96
2018-06-16T02:47:51.496Z,17.04
2018-06-16T02:49:44.444Z,17.04
2018-06-16T02:50:44.438Z,16.95
2018-06-16T02:52:37.360Z,16.98
2018-06-16T02:53:37.377Z,16.95
2018-06-16T02:55:30.319Z,16.95
2018-06-16T02:56:30.313Z,16.92
2018-06-16T02:58:23.240Z,16.89
2018-06-16T02:59:23.258Z,16.88
2018-06-16T03:01:16.200Z,16.90
2018-06-16T03:02:16.197Z,16.93
2018-06-16T03:04:09.146Z,16.93
2018-06-16T03:05:09.136Z,16.95
2018-06-16T03:07:02.065Z,16.90
2018-06-16T03:08:02.083Z,16.85
2018-06-16T03:09:55.033Z,16.88
2018-06-16T03:10:55.029Z,16.90
2018-06-16T03:12:47.953Z,16.85
2018-06-16T03:13:47.968Z,16.86
2018-06-16T03:15:40.923Z,16.80
2018-06-16T03:16:40.913Z,16.70
2018-06-16T03:18:33.834Z,16.62
2018-06-16T03:19:33.854Z,16.71
2018-06-16T03:21:26.799Z,16.73
2018-06-16T03:22:26.795Z,16.78
2018-06-16T03:24:19.741Z,16.83
2018-06-16T03:25:19.734Z,16.78
2018-06-16T03:27:12.660Z,16.74
2018-06-16T03:28:12.676Z,16.83
2018-06-16T03:30:05.623Z,16.68
2018-06-16T03:31:05.614Z,16.85
2018-06-16T03:32:58.543Z,16.81
2018-06-16T03:33:58.557Z,16.86
2018-06-16T03:35:51.506Z,16.83
2018-06-16T03:36:51.501Z,16.86
2018-06-16T03:38:44.428Z,16.88
2018-06-16T03:39:44.442Z,16.92
2018-06-16T03:41:37.389Z,16.85
2018-06-16T03:42:37.383Z,16.88
2018-06-16T03:44:30.330Z,16.89
2018-06-16T03:45:30.327Z,16.89
2018-06-16T03:47:23.253Z,16.93
2018-06-16T03:48:23.268Z,16.90
2018-06-16T03:50:16.213Z,16.90
2018-06-16T03:51:16.210Z,16.88
2018-06-16T03:53:09.139Z,16.90
2018-06-16T03:54:09.152Z,16.90
2018-06-16T03:56:02.104Z,16.88
2018-06-16T03:57:02.100Z,16.83
2018-06-16T03:58:55.036Z,16.81
2018-06-16T03:59:55.050Z,16.73
2018-06-16T04:01:48.029Z,16.77
2018-06-16T04:02:47.987Z,16.73
2018-06-16T04:04:40.978Z,16.80
2018-06-16T04:05:40.928Z,16.75
2018-06-16T04:07:33.860Z,16.88
2018-06-16T04:08:33.879Z,16.81
2018-06-16T04:10:26.827Z,16.89
2018-06-16T04:11:26.812Z,16.88
2018-06-16T04:13:19.744Z,16.92
2018-06-16T04:14:19.762Z,16.89
2018-06-16T04:16:12.706Z,16.92
2018-06-16T04:17:12.703Z,16.90
2018-06-16T04:19:06.129Z,16.90
2018-06-16T04:20:06.150Z,16.90
2018-06-16T04:21:59.591Z,16.86
2018-06-16T04:22:59.586Z,16.96
2018-06-16T04:24:52.534Z,17.04
2018-06-16T04:25:52.529Z,16.95
2018-06-16T04:27:45.456Z,17.04
2018-06-16T04:28:45.468Z,16.96
2018-06-16T04:30:38.421Z,17.06
2018-06-16T04:31:38.413Z,17.00
2018-06-16T04:33:31.341Z,17.07
2018-06-16T04:34:31.397Z,17.15
2018-06-16T04:36:24.305Z,17.14
2018-06-16T04:37:24.297Z,17.15
2018-06-16T04:39:17.229Z,17.23
2018-06-16T04:40:17.246Z,17.22
2018-06-16T04:42:10.191Z,17.41
2018-06-16T04:43:10.184Z,17.36
2018-06-16T04:45:03.139Z,17.46
2018-06-16T04:46:03.135Z,17.40
2018-06-16T04:47:56.060Z,17.44
2018-06-16T04:48:56.076Z,17.54
2018-06-16T04:50:49.039Z,17.57
2018-06-16T04:51:49.021Z,17.67
2018-06-16T04:53:41.962Z,17.78
2018-06-16T04:54:41.967Z,17.70
2018-06-16T04:56:34.928Z,17.73
2018-06-16T04:57:34.920Z,17.74
2018-06-16T04:59:27.850Z,17.79
2018-06-16T05:00:27.860Z,17.82
2018-06-16T05:02:20.817Z,17.74
2018-06-16T05:03:20.809Z,17.73
2018-06-16T05:05:13.824Z,17.84
2018-06-16T05:06:13.806Z,17.81
2018-06-16T05:08:06.736Z,17.81
2018-06-16T05:09:06.745Z,17.76
2018-06-16T05:10:59.728Z,17.84
2018-06-16T05:11:59.704Z,17.84
2018-06-16T05:12:59.733Z,17.91
2018-06-16T05:13:59.746Z,17.85
2018-06-16T05:14:59.766Z,17.94
2018-06-16T05:15:59.789Z,17.89
2018-06-16T05:16:59.836Z,17.87
2018-06-16T05:17:59.835Z,17.97
2018-06-16T05:18:59.852Z,18.04
2018-06-16T05:19:59.876Z,18.03
2018-06-16T05:20:59.931Z,18.13
2018-06-16T05:21:59.973Z,18.15
2018-06-16T05:22:59.936Z,18.34
2018-06-16T05:23:59.978Z,18.73
2018-06-16T05:24:59.979Z,18.95
2018-06-16T05:26:00.001Z,19.18
2018-06-16T05:27:00.062Z,19.58
2018-06-16T05:28:00.043Z,19.73
2018-06-16T05:29:00.068Z,19.63
2018-06-16T05:30:00.106Z,19.65
2018-06-16T05:31:00.109Z,20.02
2018-06-16T05:32:00.143Z,20.54
2018-06-16T05:33:00.149Z,20.69
2018-06-16T05:34:00.179Z,20.84
2018-06-16T05:35:00.219Z,20.68
2018-06-16T05:36:00.223Z,20.64
2018-06-16T05:37:00.240Z,20.69
2018-06-16T05:38:00.263Z,20.89
2018-06-16T05:39:00.288Z,21.75
2018-06-16T05:40:00.305Z,22.32
2018-06-16T05:41:00.330Z,22.72
2018-06-16T05:42:00.352Z,22.74
2018-06-16T05:43:00.389Z,23.09
2018-06-16T05:44:00.406Z,23.07
2018-06-16T05:45:00.425Z,23.07
2018-06-16T05:46:00.448Z,23.11
2018-06-16T05:47:00.470Z,23.08
2018-06-16T05:48:00.490Z,23.02
2018-06-16T05:49:00.514Z,22.92
2018-06-16T05:50:00.540Z,22.99
2018-06-16T05:51:00.570Z,22.96
2018-06-16T05:52:00.588Z,22.97
2018-06-16T05:53:00.612Z,22.93
2018-06-16T05:54:00.670Z,23.14
2018-06-16T05:55:00.660Z,23.26
2018-06-16T05:56:00.692Z,23.20
2018-06-16T05:57:00.705Z,23.60
2018-06-16T05:58:00.733Z,23.57
2018-06-16T05:59:00.756Z,23.72
2018-06-16T06:00:00.782Z,23.87
2018-06-16T06:01:00.806Z,23.64
2018-06-16T06:02:00.834Z,23.50
2018-06-16T06:03:00.855Z,23.19
2018-06-16T06:04:00.880Z,22.77
2018-06-16T06:05:00.905Z,22.67
2018-06-16T06:06:00.929Z,22.72
2018-06-16T06:07:00.957Z,22.69
2018-06-16T06:08:00.978Z,22.50
2018-06-16T06:09:01.004Z,22.56
2018-06-16T06:10:01.030Z,22.97
2018-06-16T06:11:01.055Z,23.26
2018-06-16T06:12:01.080Z,23.45
2018-06-16T06:13:01.117Z,23.53
2018-06-16T06:14:01.131Z,23.58
2018-06-16T06:15:01.157Z,23.60
2018-06-16T06:16:01.179Z,23.70
2018-06-16T06:17:01.219Z,23.72
2018-06-16T06:18:01.228Z,23.38
2018-06-16T06:19:01.251Z,23.26
2018-06-16T06:20:01.277Z,22.92
2018-06-16T06:21:01.307Z,22.62
2018-06-16T06:22:01.331Z,22.62
2018-06-16T06:23:01.356Z,22.47
2018-06-16T06:24:01.376Z,22.37
2018-06-16T06:25:01.402Z,22.14
2018-06-16T06:26:01.428Z,22.09
2018-06-16T06:27:01.453Z,21.92
2018-06-16T06:28:01.485Z,21.83
2018-06-16T06:29:01.503Z,21.67
2018-06-16T06:30:01.526Z,21.54
2018-06-16T06:31:01.553Z,21.41
2018-06-16T06:32:01.584Z,21.46
2018-06-16T06:33:01.604Z,21.38
2018-06-16T06:34:01.626Z,21.42
2018-06-16T06:35:01.653Z,21.51
2018-06-16T06:36:01.671Z,21.61
2018-06-16T06:37:01.696Z,21.72
2018-06-16T06:38:01.727Z,21.76
2018-06-16T06:39:01.751Z,21.90
2018-06-16T06:40:01.769Z,21.91
2018-06-16T06:41:01.801Z,21.88
2018-06-16T06:42:01.821Z,21.97
2018-06-16T06:43:01.845Z,22.06
2018-06-16T06:44:01.876Z,22.49
2018-06-16T06:45:01.895Z,22.53
2018-06-16T06:46:01.921Z,22.86
2018-06-16T06:47:01.941Z,23.24
2018-06-16T06:48:01.969Z,23.42
2018-06-16T06:49:01.995Z,23.65
2018-06-16T06:50:02.015Z,23.62
2018-06-16T06:51:02.047Z,23.95
2018-06-16T06:52:02.064Z,24.01
2018-06-16T06:53:02.092Z,24.26
2018-06-16T06:54:02.118Z,24.60
2018-06-16T06:55:02.139Z,24.91
2018-06-16T06:56:02.164Z,24.77
2018-06-16T06:57:02.189Z,25.02
2018-06-16T06:58:02.252Z,25.07
2018-06-16T06:59:02.238Z,25.06
2018-06-16T07:00:02.264Z,25.01
2018-06-16T07:01:02.483Z,25.10
2018-06-16T07:02:02.315Z,24.63
2018-06-16T07:03:02.344Z,24.54
2018-06-16T07:04:02.418Z,24.45
2018-06-16T07:05:02.387Z,24.32
2018-06-16T07:06:02.416Z,24.39
2018-06-16T07:07:02.488Z,24.52
2018-06-16T07:08:02.465Z,24.59
2018-06-16T07:09:02.495Z,24.42
2018-06-16T07:10:02.522Z,24.34
2018-06-16T07:11:02.547Z,24.04
2018-06-16T07:12:02.572Z,23.98
2018-06-16T07:13:02.603Z,23.89
2018-06-16T07:14:02.621Z,23.98
2018-06-16T07:15:02.677Z,23.95
2018-06-16T07:16:02.670Z,23.70
2018-06-16T07:17:02.698Z,23.79
2018-06-16T07:18:02.722Z,23.77
2018-06-16T07:19:02.747Z,23.75
2018-06-16T07:20:02.775Z,23.64
2018-06-16T07:21:02.803Z,23.61
2018-06-16T07:22:02.828Z,23.58
2018-06-16T07:23:02.851Z,23.53
2018-06-16T07:24:02.877Z,23.58
2018-06-16T07:25:02.907Z,23.43
2018-06-16T07:26:02.925Z,23.42
2018-06-16T07:27:02.963Z,23.60
2018-06-16T07:28:02.977Z,23.61
2018-06-16T07:29:03.002Z,23.61
2018-06-16T07:30:03.029Z,23.85
2018-06-16T07:31:03.056Z,23.85
2018-06-16T07:32:03.082Z,24.01
2018-06-16T07:33:03.104Z,24.05
2018-06-16T07:34:03.132Z,24.13
2018-06-16T07:35:03.160Z,24.19
2018-06-16T07:36:03.186Z,24.26
2018-06-16T07:37:03.205Z,24.32
2018-06-16T07:38:03.232Z,24.38
2018-06-16T07:39:03.263Z,24.45
2018-06-16T07:40:03.283Z,24.50
2018-06-16T07:41:03.308Z,24.76
2018-06-16T07:42:03.339Z,24.80
2018-06-16T07:43:03.357Z,24.80
2018-06-16T07:44:03.386Z,24.85
2018-06-16T07:45:03.411Z,24.85
2018-06-16T07:46:03.437Z,24.39
2018-06-16T07:47:03.459Z,23.95
2018-06-16T07:48:03.487Z,23.92
2018-06-16T07:49:03.522Z,23.90
2018-06-16T07:50:03.538Z,23.83
2018-06-16T07:51:03.566Z,23.75
2018-06-16T07:52:03.590Z,23.76
2018-06-16T07:53:03.618Z,23.90
2018-06-16T07:54:03.642Z,23.85
2018-06-16T07:55:03.669Z,23.97
2018-06-16T07:56:03.694Z,24.31
2018-06-16T07:57:03.718Z,24.68
2018-06-16T07:58:03.744Z,24.77
2018-06-16T07:59:03.771Z,25.06
2018-06-16T08:00:03.795Z,25.42
2018-06-16T08:01:03.822Z,25.62
2018-06-16T08:02:03.847Z,25.97
2018-06-16T08:03:03.873Z,26.02
2018-06-16T08:04:03.898Z,25.97
2018-06-16T08:05:03.925Z,26.09
2018-06-16T08:06:03.950Z,26.06
2018-06-16T08:07:03.978Z,25.99
2018-06-16T08:08:04.003Z,26.15
2018-06-16T08:09:04.029Z,26.06
2018-06-16T08:10:04.059Z,26.20
2018-06-16T08:11:04.081Z,26.15
2018-06-16T08:12:04.107Z,26.35
2018-06-16T08:13:04.137Z,26.11
2018-06-16T08:14:04.162Z,26.29
2018-06-16T08:15:04.188Z,26.20
2018-06-16T08:16:04.214Z,25.94
2018-06-16T08:17:04.241Z,25.69
2018-06-16T08:18:04.269Z,25.62
2018-06-16T08:19:04.296Z,25.62
2018-06-16T08:20:04.320Z,25.62
2018-06-16T08:21:04.343Z,25.64
2018-06-16T08:22:04.376Z,25.64
2018-06-16T08:23:04.402Z,25.62
2018-06-16T08:24:04.428Z,25.79
2018-06-16T08:25:04.456Z,26.02
2018-06-16T08:26:04.482Z,26.18
2018-06-16T08:27:04.508Z,26.31
2018-06-16T08:28:04.535Z,26.24
2018-06-16T08:29:04.563Z,26.49
2018-06-16T08:30:04.587Z,26.37
2018-06-16T08:31:04.616Z,26.25
2018-06-16T08:32:04.644Z,26.02
2018-06-16T08:33:04.669Z,25.75
2018-06-16T08:34:04.697Z,25.62
2018-06-16T08:35:04.723Z,25.50
2018-06-16T08:36:04.754Z,25.53
2018-06-16T08:37:04.779Z,25.61
2018-06-16T08:38:04.807Z,25.46
2018-06-16T08:39:04.834Z,25.52
2018-06-16T08:40:04.858Z,25.52
2018-06-16T08:41:04.885Z,25.53
2018-06-16T08:42:04.912Z,25.49
2018-06-16T08:43:04.988Z,25.46
2018-06-16T08:44:04.967Z,25.30
2018-06-16T08:45:04.993Z,25.37
2018-06-16T08:46:05.020Z,25.35
2018-06-16T08:47:05.044Z,25.39
2018-06-16T08:48:05.072Z,25.52
2018-06-16T08:49:05.100Z,25.57
2018-06-16T08:50:05.124Z,25.65
2018-06-16T08:51:05.149Z,25.46
2018-06-16T08:52:05.177Z,25.59
2018-06-16T08:53:05.206Z,25.87
2018-06-16T08:54:05.231Z,26.21
2018-06-16T08:55:05.255Z,26.39
2018-06-16T08:56:05.283Z,26.50
2018-06-16T08:57:05.311Z,26.72
2018-06-16T08:58:05.339Z,26.64
2018-06-16T08:59:05.360Z,26.79
2018-06-16T09:00:05.388Z,26.86
2018-06-16T09:01:05.415Z,26.95
2018-06-16T09:02:05.444Z,26.96
2018-06-16T09:03:05.469Z,26.89
2018-06-16T09:04:05.496Z,27.01
2018-06-16T09:05:05.522Z,27.10
2018-06-16T09:06:05.548Z,27.11
2018-06-16T09:07:05.574Z,27.13
2018-06-16T09:08:05.600Z,27.38
2018-06-16T09:09:05.634Z,27.19
2018-06-16T09:10:05.656Z,27.23
2018-06-16T09:11:05.683Z,27.26
2018-06-16T09:12:05.712Z,27.26
2018-06-16T09:13:05.737Z,27.28
2018-06-16T09:14:05.765Z,27.20
2018-06-16T09:15:05.792Z,27.23
2018-06-16T09:16:05.818Z,27.36
2018-06-16T09:17:05.843Z,27.36
2018-06-16T09:18:05.874Z,27.38
2018-06-16T09:19:05.897Z,27.36
2018-06-16T09:20:05.925Z,27.64
2018-06-16T09:21:05.953Z,27.59
2018-06-16T09:22:05.981Z,27.74
2018-06-16T09:23:06.007Z,27.82
2018-06-16T09:24:06.032Z,27.77
2018-06-16T09:25:06.060Z,27.50
2018-06-16T09:26:06.088Z,27.53
2018-06-16T09:27:06.122Z,27.67
2018-06-16T09:28:06.252Z,27.69
2018-06-16T09:29:06.172Z,27.50
2018-06-16T09:30:06.195Z,27.09
2018-06-16T09:31:06.222Z,27.02
2018-06-16T09:32:06.248Z,26.99
2018-06-16T09:33:06.275Z,27.11
2018-06-16T09:34:06.303Z,27.21
2018-06-16T09:35:06.333Z,27.24
2018-06-16T09:36:06.361Z,27.24
2018-06-16T09:37:06.388Z,27.29
2018-06-16T09:38:06.409Z,27.11
2018-06-16T09:39:06.441Z,26.99
2018-06-16T09:40:06.464Z,26.99
2018-06-16T09:41:06.491Z,27.01
2018-06-16T09:42:06.535Z,26.68
2018-06-16T09:43:06.549Z,26.74
2018-06-16T09:44:06.576Z,26.47
2018-06-16T09:45:06.608Z,26.37
2018-06-16T09:46:06.625Z,26.40
2018-06-16T09:47:06.705Z,26.46
2018-06-16T09:48:06.700Z,26.62
2018-06-16T09:49:06.712Z,26.65
2018-06-16T09:50:06.733Z,26.31
2018-06-16T09:51:06.772Z,26.28
2018-06-16T09:52:06.788Z,26.18
2018-06-16T09:53:06.818Z,25.94
2018-06-16T09:54:06.837Z,26.08
2018-06-16T09:55:06.866Z,26.27
2018-06-16T09:56:06.892Z,26.36
2018-06-16T09:57:06.919Z,26.59
2018-06-16T09:58:06.946Z,26.99
2018-06-16T09:59:06.976Z,27.26
2018-06-16T10:00:07.001Z,27.64
2018-06-16T10:01:07.025Z,27.89
2018-06-16T10:02:07.051Z,27.94
2018-06-16T10:03:07.077Z,28.06
2018-06-16T10:04:07.106Z,28.28
2018-06-16T10:05:07.129Z,28.28
2018-06-16T10:06:07.158Z,28.33
2018-06-16T10:07:07.184Z,28.16
2018-06-16T10:08:07.209Z,28.38
2018-06-16T10:09:07.236Z,28.47
2018-06-16T10:10:07.262Z,28.70
2018-06-16T10:11:07.292Z,28.72
2018-06-16T10:12:07.321Z,28.85
2018-06-16T10:13:07.344Z,28.93
2018-06-16T10:14:07.372Z,28.78
2018-06-16T10:15:07.399Z,28.40
2018-06-16T10:16:07.437Z,28.21
2018-06-16T10:17:07.452Z,28.25
2018-06-16T10:18:07.478Z,28.23
2018-06-16T10:19:07.508Z,28.16
2018-06-16T10:20:07.534Z,28.01
2018-06-16T10:21:07.561Z,28.06
2018-06-16T10:22:07.586Z,27.96
2018-06-16T10:23:07.617Z,28.16
2018-06-16T10:24:07.644Z,28.28
2018-06-16T10:25:07.670Z,28.13
2018-06-16T10:26:07.696Z,28.03
2018-06-16T10:27:07.723Z,27.82
2018-06-16T10:28:07.752Z,27.71
2018-06-16T10:29:07.800Z,27.43
2018-06-16T10:30:07.813Z,27.53
2018-06-16T10:31:07.836Z,27.42
2018-06-16T10:32:07.860Z,27.36
2018-06-16T10:33:07.883Z,27.21
2018-06-16T10:34:07.919Z,27.11
2018-06-16T10:35:07.954Z,27.11
2018-06-16T10:36:07.968Z,27.01
2018-06-16T10:37:07.998Z,26.86
2018-06-16T10:38:08.020Z,26.81
2018-06-16T10:39:08.051Z,26.89
2018-06-16T10:40:08.073Z,26.86
2018-06-16T10:41:08.103Z,26.87
2018-06-16T10:42:08.133Z,26.86
2018-06-16T10:43:08.152Z,26.76
2018-06-16T10:44:08.179Z,26.68
2018-06-16T10:45:08.208Z,26.72
2018-06-16T10:46:08.236Z,26.64
2018-06-16T10:47:08.262Z,26.77
2018-06-16T10:48:08.289Z,26.94
2018-06-16T10:49:08.315Z,26.94
2018-06-16T10:50:08.342Z,26.91
2018-06-16T10:51:08.371Z,27.09
2018-06-16T10:52:08.399Z,27.11
2018-06-16T10:53:08.422Z,27.14
2018-06-16T10:54:08.452Z,27.17
2018-06-16T10:55:08.481Z,27.06
2018-06-16T10:56:08.503Z,27.16
2018-06-16T10:57:08.527Z,27.17
2018-06-16T10:58:08.552Z,27.04
2018-06-16T10:59:08.582Z,26.77
2018-06-16T11:00:08.605Z,26.50
2018-06-16T11:01:08.636Z,26.37
2018-06-16T11:02:08.662Z,26.15
2018-06-16T11:03:08.688Z,25.90
2018-06-16T11:04:08.713Z,25.72
2018-06-16T11:05:08.741Z,25.67
2018-06-16T11:06:08.769Z,25.53
2018-06-16T11:07:08.793Z,25.52
2018-06-16T11:08:08.818Z,25.42
2018-06-16T11:09:08.848Z,25.38
2018-06-16T11:10:08.873Z,25.52
2018-06-16T11:11:08.902Z,25.71
2018-06-16T11:12:08.925Z,25.72
2018-06-16T11:13:08.950Z,25.80
2018-06-16T11:14:08.974Z,25.86
2018-06-16T11:15:09.002Z,25.86
2018-06-16T11:16:09.028Z,25.87
2018-06-16T11:17:09.054Z,25.94
2018-06-16T11:18:09.080Z,26.01
2018-06-16T11:19:09.174Z,26.28
2018-06-16T11:20:09.139Z,26.64
2018-06-16T11:21:09.166Z,26.92
2018-06-16T11:22:09.184Z,26.99
2018-06-16T11:23:09.213Z,27.09
2018-06-16T11:24:09.237Z,27.38
2018-06-16T11:25:09.272Z,27.39
2018-06-16T11:26:09.305Z,27.71
2018-06-16T11:27:09.315Z,27.86
2018-06-16T11:28:09.343Z,27.58
2018-06-16T11:29:09.379Z,27.79
2018-06-16T11:30:09.412Z,27.41
2018-06-16T11:31:09.437Z,27.17
2018-06-16T11:32:09.446Z,27.26
2018-06-16T11:33:09.469Z,27.24
2018-06-16T11:34:09.499Z,27.38
2018-06-16T11:35:09.529Z,27.50
2018-06-16T11:36:09.556Z,27.82
2018-06-16T11:37:09.589Z,28.03
2018-06-16T11:38:09.620Z,28.10
2018-06-16T11:39:09.639Z,28.10
2018-06-16T11:40:09.684Z,28.13
2018-06-16T11:41:09.686Z,28.22
2018-06-16T11:42:09.713Z,28.09
2018-06-16T11:43:09.739Z,28.14
2018-06-16T11:44:09.761Z,28.25
2018-06-16T11:45:09.791Z,28.36
2018-06-16T11:46:09.819Z,28.44
2018-06-16T11:47:09.849Z,28.40
2018-06-16T11:48:10.383Z,28.32
2018-06-16T11:49:09.905Z,28.19
2018-06-16T11:50:09.925Z,28.03
2018-06-16T11:51:09.953Z,28.21
2018-06-16T11:52:10.020Z,28.11
2018-06-16T11:53:10.023Z,27.94
2018-06-16T11:54:10.034Z,27.95
2018-06-16T11:55:10.062Z,27.92
2018-06-16T11:56:10.115Z,27.98
2018-06-16T11:57:10.112Z,28.07
2018-06-16T11:58:10.153Z,27.92
2018-06-16T11:59:10.181Z,27.64
2018-06-16T12:00:10.204Z,27.33
2018-06-16T12:01:10.222Z,27.17
2018-06-16T12:02:10.252Z,26.83
2018-06-16T12:03:10.281Z,26.81
2018-06-16T12:04:10.299Z,26.55
2018-06-16T12:05:10.328Z,26.40
2018-06-16T12:06:10.354Z,26.29
2018-06-16T12:07:10.381Z,26.15
2018-06-16T12:08:10.406Z,26.05
2018-06-16T12:09:10.434Z,26.02
2018-06-16T12:10:10.483Z,26.08
2018-06-16T12:11:10.488Z,26.04
2018-06-16T12:12:10.513Z,26.02
2018-06-16T12:13:10.539Z,26.22
2018-06-16T12:14:10.564Z,26.72
2018-06-16T12:15:10.592Z,27.13
2018-06-16T12:16:10.628Z,27.57
2018-06-16T12:17:10.652Z,27.85
2018-06-16T12:18:10.681Z,27.99
2018-06-16T12:19:10.717Z,27.98
2018-06-16T12:20:10.722Z,28.01
2018-06-16T12:21:10.751Z,28.07
2018-06-16T12:22:10.775Z,28.09
2018-06-16T12:23:10.804Z,28.09
2018-06-16T12:24:10.825Z,28.03
2018-06-16T12:25:10.857Z,28.17
2018-06-16T12:26:10.886Z,28.01
2018-06-16T12:27:10.910Z,27.95
2018-06-16T12:28:10.940Z,27.66
2018-06-16T12:29:10.972Z,27.62
2018-06-16T12:30:11.000Z,27.71
2018-06-16T12:31:11.012Z,27.67
2018-06-16T12:32:11.047Z,27.73
2018-06-16T12:33:11.067Z,27.79
2018-06-16T12:34:11.093Z,27.73
2018-06-16T12:35:11.122Z,27.85
2018-06-16T12:36:11.147Z,28.07
2018-06-16T12:37:11.176Z,28.04
2018-06-16T12:38:11.201Z,27.95
2018-06-16T12:39:11.272Z,27.94
2018-06-16T12:40:11.254Z,28.03
2018-06-16T12:41:11.281Z,28.07
2018-06-16T12:42:11.309Z,27.94
2018-06-16T12:43:11.337Z,27.79
2018-06-16T12:44:11.365Z,27.76
2018-06-16T12:45:11.401Z,27.89
2018-06-16T12:46:11.417Z,27.89
2018-06-16T12:47:11.442Z,27.85
2018-06-16T12:48:11.463Z,27.89
2018-06-16T12:49:11.494Z,28.22
2018-06-16T12:50:11.522Z,28.21
2018-06-16T12:51:11.552Z,27.96
2018-06-16T12:52:11.577Z,27.71
2018-06-16T12:53:11.603Z,27.38
2018-06-16T12:54:11.628Z,27.39
2018-06-16T12:55:11.655Z,27.57
2018-06-16T12:56:11.682Z,28.07
2018-06-16T12:57:11.764Z,28.26
2018-06-16T12:58:11.755Z,28.41
2018-06-16T12:59:11.777Z,28.73
2018-06-16T13:00:11.788Z,28.77
2018-06-16T13:01:11.818Z,28.48
2018-06-16T13:02:11.838Z,28.65
2018-06-16T13:03:11.869Z,28.56
2018-06-16T13:04:11.897Z,28.54
2018-06-16T13:05:11.923Z,28.35
2018-06-16T13:06:11.960Z,28.17
2018-06-16T13:07:11.992Z,28.09
2018-06-16T13:08:12.004Z,28.16
2018-06-16T13:09:12.032Z,28.36
2018-06-16T13:10:12.060Z,28.40
2018-06-16T13:11:12.090Z,28.58
2018-06-16T13:12:12.120Z,28.48
2018-06-16T13:13:12.137Z,28.56
2018-06-16T13:14:12.169Z,28.26
2018-06-16T13:15:12.194Z,28.43
2018-06-16T13:16:12.237Z,28.31
2018-06-16T13:17:12.257Z,28.29
2018-06-16T13:18:12.328Z,28.21
2018-06-16T13:19:12.303Z,28.26
2018-06-16T13:20:12.327Z,28.04
2018-06-16T13:21:12.355Z,27.96
2018-06-16T13:22:12.382Z,28.04
2018-06-16T13:23:12.406Z,28.06
2018-06-16T13:24:12.437Z,28.10
2018-06-16T13:25:12.464Z,28.10
2018-06-16T13:26:12.491Z,28.26
2018-06-16T13:27:12.518Z,28.26
2018-06-16T13:28:12.546Z,28.35
2018-06-16T13:29:12.581Z,28.36
2018-06-16T13:30:12.598Z,28.56
2018-06-16T13:31:12.685Z,28.70
2018-06-16T13:32:12.649Z,28.56
2018-06-16T13:33:12.681Z,28.59
2018-06-16T13:34:12.710Z,28.65
2018-06-16T13:35:12.734Z,28.60
2018-06-16T13:36:12.759Z,28.38
2018-06-16T13:37:12.786Z,28.35
2018-06-16T13:38:12.813Z,28.35
2018-06-16T13:39:12.848Z,28.28
2018-06-16T13:40:12.870Z,28.25
2018-06-16T13:41:12.899Z,28.22
2018-06-16T13:42:12.922Z,28.21
2018-06-16T13:43:12.962Z,27.91
2018-06-16T13:44:12.983Z,27.67
2018-06-16T13:45:13.003Z,27.42
2018-06-16T13:46:13.028Z,27.43
2018-06-16T13:47:13.059Z,27.43
2018-06-16T13:48:13.086Z,27.58
2018-06-16T13:49:13.113Z,27.64
2018-06-16T13:50:13.137Z,27.82
2018-06-16T13:51:13.165Z,27.84
2018-06-16T13:52:13.192Z,28.03
2018-06-16T13:53:13.222Z,28.19
2018-06-16T13:54:13.247Z,28.33
2018-06-16T13:55:13.273Z,28.36
2018-06-16T13:56:13.300Z,28.53
2018-06-16T13:57:13.324Z,28.62
2018-06-16T13:58:13.367Z,28.66
2018-06-16T13:59:13.392Z,28.62
2018-06-16T14:00:13.423Z,28.40
2018-06-16T14:01:13.431Z,28.31
2018-06-16T14:02:13.461Z,28.07
2018-06-16T14:03:13.486Z,28.10
2018-06-16T14:04:13.528Z,28.16
2018-06-16T14:05:13.541Z,28.07
2018-06-16T14:06:13.567Z,28.25
2018-06-16T14:07:13.595Z,28.40
2018-06-16T14:08:13.618Z,28.26
2018-06-16T14:09:13.647Z,27.89
2018-06-16T14:10:13.671Z,27.76
2018-06-16T14:11:13.704Z,27.66
2018-06-16T14:12:13.728Z,27.50